sensor_id;sensor_type;location;lat;lon;timestamp;pressure;altitude;pressure_sealevel;temperature;humidity
58843;BME280;44614;54.356;10.100;2023-01-30T00:01:20;100391.13;;;4.10;100.00
58843;BME280;44614;54.356;10.100;2023-01-30T00:03:46;100370.88;;;4.12;100.00
58843;BME280;44614;54.356;10.100;2023-01-30T00:06:11;100358.97;;;4.13;100.00
58843;BME280;44614;54.356;10.100;2023-01-30T00:08:36;100336.97;;;4.08;100.00
58843;BME280;44614;54.356;10.100;2023-01-30T00:11:04;100328.03;;;4.14;100.00
58843;BME280;44614;54.356;10.100;2023-01-30T00:13:29;100369.84;;;4.13;100.00
58843;BME280;44614;54.356;10.100;2023-01-30T00:15:55;100329.06;;;4.13;100.00
58843;BME280;44614;54.356;10.100;2023-01-30T00:18:20;100316.72;;;4.11;100.00
58843;BME280;44614;54.356;10.100;2023-01-30T00:20:45;100303.72;;;4.06;100.00
58843;BME280;44614;54.356;10.100;2023-01-30T00:23:11;100307.50;;;4.12;100.00
58843;BME280;44614;54.356;10.100;2023-01-30T00:25:36;100292.47;;;4.09;100.00
58843;BME280;44614;54.356;10.100;2023-01-30T00:28:01;100310.31;;;4.19;100.00
58843;BME280;44614;54.356;10.100;2023-01-30T00:30:27;100300.22;;;4.12;100.00
58843;BME280;44614;54.356;10.100;2023-01-30T00:32:56;100294.59;;;4.14;100.00
58843;BME280;44614;54.356;10.100;2023-01-30T00:35:22;100302.53;;;4.15;100.00
58843;BME280;44614;54.356;10.100;2023-01-30T00:37:55;100272.19;;;4.12;100.00
58843;BME280;44614;54.356;10.100;2023-01-30T00:40:22;100288.31;;;4.13;100.00
58843;BME280;44614;54.356;10.100;2023-01-30T00:42:47;100275.78;;;4.12;100.00
58843;BME280;44614;54.356;10.100;2023-01-30T00:45:31;100267.63;;;4.12;100.00
58843;BME280;44614;54.356;10.100;2023-01-30T00:48:17;100262.56;;;4.09;100.00
58843;BME280;44614;54.356;10.100;2023-01-30T00:50:42;100229.81;;;3.96;100.00
58843;BME280;44614;54.356;10.100;2023-01-30T00:53:11;100251.31;;;4.12;100.00
58843;BME280;44614;54.356;10.100;2023-01-30T00:55:37;100203.91;;;3.72;100.00
58843;BME280;44614;54.356;10.100;2023-01-30T00:58:03;100217.41;;;4.08;100.00
58843;BME280;44614;54.356;10.100;2023-01-30T01:00:28;100220.13;;;4.08;100.00
58843;BME280;44614;54.356;10.100;2023-01-30T01:02:53;100221.16;;;4.07;100.00
58843;BME280;44614;54.356;10.100;2023-01-30T01:05:19;100225.34;;;4.10;100.00
58843;BME280;44614;54.356;10.100;2023-01-30T01:07:44;100221.97;;;4.08;100.00
58843;BME280;44614;54.356;10.100;2023-01-30T01:10:09;100213.06;;;4.14;100.00
58843;BME280;44614;54.356;10.100;2023-01-30T01:12:41;100213.28;;;4.12;100.00
58843;BME280;44614;54.356;10.100;2023-01-30T01:15:07;100209.94;;;4.17;100.00
58843;BME280;44614;54.356;10.100;2023-01-30T01:17:33;100204.53;;;4.17;100.00
58843;BME280;44614;54.356;10.100;2023-01-30T01:19:58;100204.53;;;4.17;100.00
58843;BME280;44614;54.356;10.100;2023-01-30T01:22:23;100192.16;;;4.14;100.00
58843;BME280;44614;54.356;10.100;2023-01-30T01:24:49;100189.88;;;4.18;100.00
58843;BME280;44614;54.356;10.100;2023-01-30T01:27:14;100182.19;;;4.22;100.00
58843;BME280;44614;54.356;10.100;2023-01-30T01:29:39;100194.72;;;4.23;100.00
58843;BME280;44614;54.356;10.100;2023-01-30T01:32:05;100172.53;;;4.19;100.00
58843;BME280;44614;54.356;10.100;2023-01-30T01:34:30;100178.63;;;4.21;100.00
58843;BME280;44614;54.356;10.100;2023-01-30T01:36:55;100179.25;;;4.23;100.00
58843;BME280;44614;54.356;10.100;2023-01-30T01:39:21;100167.75;;;4.21;100.00
58843;BME280;44614;54.356;10.100;2023-01-30T01:41:46;100170.91;;;4.25;100.00
58843;BME280;44614;54.356;10.100;2023-01-30T01:44:12;100173.63;;;4.25;100.00
58843;BME280;44614;54.356;10.100;2023-01-30T01:46:54;100143.91;;;4.23;100.00
58843;BME280;44614;54.356;10.100;2023-01-30T01:49:32;100147.50;;;4.24;100.00
58843;BME280;44614;54.356;10.100;2023-01-30T01:52:00;100149.63;;;4.28;100.00
58843;BME280;44614;54.356;10.100;2023-01-30T01:57:19;100127.25;;;4.33;100.00
58843;BME280;44614;54.356;10.100;2023-01-30T02:00:02;100124.56;;;4.33;100.00
58843;BME280;44614;54.356;10.100;2023-01-30T02:02:33;100110.56;;;4.36;100.00
58843;BME280;44614;54.356;10.100;2023-01-30T02:04:59;100116.00;;;4.36;100.00
58843;BME280;44614;54.356;10.100;2023-01-30T02:07:59;100102.59;;;4.34;100.00
58843;BME280;44614;54.356;10.100;2023-01-30T02:10:34;100091.53;;;4.36;100.00
58843;BME280;44614;54.356;10.100;2023-01-30T02:13:04;100098.25;;;4.40;100.00
58843;BME280;44614;54.356;10.100;2023-01-30T02:15:29;100113.28;;;4.43;100.00
58843;BME280;44614;54.356;10.100;2023-01-30T02:17:54;100100.34;;;4.45;100.00
58843;BME280;44614;54.356;10.100;2023-01-30T02:23:42;100095.34;;;4.48;100.00
58843;BME280;44614;54.356;10.100;2023-01-30T02:34:40;100121.19;;;4.66;100.00
58843;BME280;44614;54.356;10.100;2023-01-30T02:42:43;100107.53;;;4.59;100.00
58843;BME280;44614;54.356;10.100;2023-01-30T02:50:23;100132.41;;;4.56;100.00
58843;BME280;44614;54.356;10.100;2023-01-30T02:52:50;100133.41;;;4.48;100.00
58843;BME280;44614;54.356;10.100;2023-01-30T02:55:19;100135.69;;;4.45;100.00
58843;BME280;44614;54.356;10.100;2023-01-30T02:57:46;100134.63;;;4.39;100.00
58843;BME280;44614;54.356;10.100;2023-01-30T03:00:15;100118.72;;;4.36;100.00
58843;BME280;44614;54.356;10.100;2023-01-30T03:08:28;100140.41;;;4.29;100.00
58843;BME280;44614;54.356;10.100;2023-01-30T03:11:05;100127.44;;;4.25;100.00
58843;BME280;44614;54.356;10.100;2023-01-30T03:16:11;100117.50;;;4.10;100.00
58843;BME280;44614;54.356;10.100;2023-01-30T03:18:40;100117.28;;;4.12;100.00
58843;BME280;44614;54.356;10.100;2023-01-30T03:21:07;100110.00;;;4.12;100.00
58843;BME280;44614;54.356;10.100;2023-01-30T03:23:32;100099.31;;;4.11;100.00
58843;BME280;44614;54.356;10.100;2023-01-30T03:25:57;100113.13;;;4.09;100.00
58843;BME280;44614;54.356;10.100;2023-01-30T03:28:23;100096.53;;;4.04;100.00
58843;BME280;44614;54.356;10.100;2023-01-30T03:30:49;100097.97;;;4.00;100.00
58843;BME280;44614;54.356;10.100;2023-01-30T03:33:14;100085.31;;;3.79;100.00
58843;BME280;44614;54.356;10.100;2023-01-30T03:35:40;100127.84;;;3.94;100.00
58843;BME280;44614;54.356;10.100;2023-01-30T03:38:06;100113.97;;;3.82;100.00
58843;BME280;44614;54.356;10.100;2023-01-30T03:40:32;100128.63;;;3.87;100.00
58843;BME280;44614;54.356;10.100;2023-01-30T03:42:57;100130.75;;;3.92;100.00
58843;BME280;44614;54.356;10.100;2023-01-30T03:45:22;100120.91;;;3.91;100.00
58843;BME280;44614;54.356;10.100;2023-01-30T03:47:48;100116.53;;;3.90;100.00
58843;BME280;44614;54.356;10.100;2023-01-30T03:50:13;100101.84;;;3.84;100.00
58843;BME280;44614;54.356;10.100;2023-01-30T03:52:38;100096.63;;;3.83;100.00
58843;BME280;44614;54.356;10.100;2023-01-30T03:55:04;100099.13;;;3.84;100.00
58843;BME280;44614;54.356;10.100;2023-01-30T03:57:29;100090.28;;;3.76;100.00
58843;BME280;44614;54.356;10.100;2023-01-30T03:59:55;100088.25;;;3.78;100.00
58843;BME280;44614;54.356;10.100;2023-01-30T04:02:20;100093.59;;;3.71;100.00
58843;BME280;44614;54.356;10.100;2023-01-30T04:04:48;100106.59;;;3.76;100.00
58843;BME280;44614;54.356;10.100;2023-01-30T04:07:14;100095.22;;;3.65;100.00
58843;BME280;44614;54.356;10.100;2023-01-30T04:09:40;100104.47;;;3.71;100.00
58843;BME280;44614;54.356;10.100;2023-01-30T04:12:05;100119.28;;;3.69;100.00
58843;BME280;44614;54.356;10.100;2023-01-30T04:14:31;100106.88;;;3.59;100.00
58843;BME280;44614;54.356;10.100;2023-01-30T04:16:56;100093.69;;;3.56;100.00
58843;BME280;44614;54.356;10.100;2023-01-30T04:19:21;100106.88;;;3.59;100.00
58843;BME280;44614;54.356;10.100;2023-01-30T04:21:46;100086.19;;;3.58;100.00
58843;BME280;44614;54.356;10.100;2023-01-30T04:24:12;100088.06;;;3.58;100.00
58843;BME280;44614;54.356;10.100;2023-01-30T04:26:37;100083.44;;;3.52;100.00
58843;BME280;44614;54.356;10.100;2023-01-30T04:29:03;100087.13;;;3.44;100.00
58843;BME280;44614;54.356;10.100;2023-01-30T04:31:28;100104.94;;;3.53;100.00
58843;BME280;44614;54.356;10.100;2023-01-30T04:33:53;100088.78;;;3.45;100.00
58843;BME280;44614;54.356;10.100;2023-01-30T04:36:19;100063.16;;;3.26;100.00
58843;BME280;44614;54.356;10.100;2023-01-30T04:38:44;100102.34;;;3.45;100.00
58843;BME280;44614;54.356;10.100;2023-01-30T04:41:09;100091.28;;;3.47;100.00
58843;BME280;44614;54.356;10.100;2023-01-30T04:43:34;100087.13;;;3.44;100.00
58843;BME280;44614;54.356;10.100;2023-01-30T04:46:00;100099.66;;;3.45;100.00
58843;BME280;44614;54.356;10.100;2023-01-30T04:48:25;100084.56;;;3.42;100.00
58843;BME280;44614;54.356;10.100;2023-01-30T04:50:52;100078.69;;;3.39;100.00
58843;BME280;44614;54.356;10.100;2023-01-30T04:53:19;100080.56;;;3.38;100.00
58843;BME280;44614;54.356;10.100;2023-01-30T04:55:45;100068.63;;;3.33;100.00
58843;BME280;44614;54.356;10.100;2023-01-30T04:58:10;100079.88;;;3.30;100.00
58843;BME280;44614;54.356;10.100;2023-01-30T05:00:36;100084.47;;;3.29;100.00
58843;BME280;44614;54.356;10.100;2023-01-30T05:03:01;100092.41;;;3.31;100.00
58843;BME280;44614;54.356;10.100;2023-01-30T05:05:27;100077.53;;;3.27;100.00
58843;BME280;44614;54.356;10.100;2023-01-30T05:07:53;100081.94;;;3.28;100.00
58843;BME280;44614;54.356;10.100;2023-01-30T05:10:18;100072.63;;;3.15;100.00
58843;BME280;44614;54.356;10.100;2023-01-30T05:12:44;100073.09;;;3.19;100.00
58843;BME280;44614;54.356;10.100;2023-01-30T05:15:10;100072.38;;;3.10;100.00
58843;BME280;44614;54.356;10.100;2023-01-30T05:17:36;100077.31;;;3.22;100.00
58843;BME280;44614;54.356;10.100;2023-01-30T05:20:01;100077.31;;;3.22;100.00
58843;BME280;44614;54.356;10.100;2023-01-30T05:22:27;100070.19;;;3.21;100.00
58843;BME280;44614;54.356;10.100;2023-01-30T05:24:52;100070.19;;;3.21;100.00
58843;BME280;44614;54.356;10.100;2023-01-30T05:27:18;100061.78;;;3.15;100.00
58843;BME280;44614;54.356;10.100;2023-01-30T05:29:43;100061.78;;;3.15;100.00
58843;BME280;44614;54.356;10.100;2023-01-30T05:32:13;100078.34;;;3.21;100.00
58843;BME280;44614;54.356;10.100;2023-01-30T05:34:38;100070.00;;;3.22;100.00
58843;BME280;44614;54.356;10.100;2023-01-30T05:37:04;100067.06;;;3.24;100.00
58843;BME280;44614;54.356;10.100;2023-01-30T05:39:29;100054.94;;;3.20;100.00
58843;BME280;44614;54.356;10.100;2023-01-30T05:41:54;100067.91;;;3.24;100.00
58843;BME280;44614;54.356;10.100;2023-01-30T05:44:20;100051.38;;;3.19;100.00
58843;BME280;44614;54.356;10.100;2023-01-30T05:46:45;100064.19;;;3.25;100.00
58843;BME280;44614;54.356;10.100;2023-01-30T05:49:10;100056.69;;;3.27;100.00
58843;BME280;44614;54.356;10.100;2023-01-30T05:51:36;100068.56;;;3.26;100.00
58843;BME280;44614;54.356;10.100;2023-01-30T05:54:01;100063.16;;;3.26;100.00
58843;BME280;44614;54.356;10.100;2023-01-30T05:56:26;100051.84;;;3.23;100.00
58843;BME280;44614;54.356;10.100;2023-01-30T05:58:53;100060.13;;;3.36;100.00
58843;BME280;44614;54.356;10.100;2023-01-30T06:01:19;100099.56;;;3.38;100.00
58843;BME280;44614;54.356;10.100;2023-01-30T06:03:45;100065.94;;;3.33;100.00
58843;BME280;44614;54.356;10.100;2023-01-30T06:06:11;100081.25;;;3.40;100.00
58843;BME280;44614;54.356;10.100;2023-01-30T06:08:36;100061.97;;;3.35;100.00
58843;BME280;44614;54.356;10.100;2023-01-30T06:11:04;100077.69;;;3.40;100.00
58843;BME280;44614;54.356;10.100;2023-01-30T06:13:30;100048.53;;;3.27;100.00
58843;BME280;44614;54.356;10.100;2023-01-30T06:15:56;100068.88;;;3.38;100.00
58843;BME280;44614;54.356;10.100;2023-01-30T06:18:21;100068.88;;;3.38;100.00
58843;BME280;44614;54.356;10.100;2023-01-30T06:20:48;100058.41;;;3.35;100.00
58843;BME280;44614;54.356;10.100;2023-01-30T06:23:14;100064.69;;;3.35;100.00
58843;BME280;44614;54.356;10.100;2023-01-30T06:25:44;100061.78;;;3.37;100.00
58843;BME280;44614;54.356;10.100;2023-01-30T06:28:10;100060.75;;;3.38;100.00
58843;BME280;44614;54.356;10.100;2023-01-30T06:30:35;100030.34;;;3.21;100.00
58843;BME280;44614;54.356;10.100;2023-01-30T06:33:01;100047.94;;;3.32;100.00
58843;BME280;44614;54.356;10.100;2023-01-30T06:35:26;100048.59;;;3.34;100.00
58843;BME280;44614;54.356;10.100;2023-01-30T06:37:51;100040.69;;;3.39;100.00
58843;BME280;44614;54.356;10.100;2023-01-30T06:40:17;100040.69;;;3.39;100.00
58843;BME280;44614;54.356;10.100;2023-01-30T06:42:44;100041.75;;;3.38;100.00
58843;BME280;44614;54.356;10.100;2023-01-30T06:45:10;100062.41;;;3.39;100.00
58843;BME280;44614;54.356;10.100;2023-01-30T06:47:43;100055.31;;;3.38;100.00
58843;BME280;44614;54.356;10.100;2023-01-30T06:50:09;100051.97;;;3.36;100.00
58843;BME280;44614;54.356;10.100;2023-01-30T06:52:39;100012.47;;;3.05;100.00
58843;BME280;44614;54.356;10.100;2023-01-30T06:55:05;100048.66;;;3.40;100.00
58843;BME280;44614;54.356;10.100;2023-01-30T06:57:30;100047.31;;;3.30;100.00
58843;BME280;44614;54.356;10.100;2023-01-30T06:59:56;100071.66;;;3.45;100.00
58843;BME280;44614;54.356;10.100;2023-01-30T07:02:21;100051.56;;;3.39;100.00
58843;BME280;44614;54.356;10.100;2023-01-30T07:04:46;100067.47;;;3.42;100.00
58843;BME280;44614;54.356;10.100;2023-01-30T07:07:11;100066.25;;;3.45;100.00
58843;BME280;44614;54.356;10.100;2023-01-30T07:09:37;100050.78;;;3.45;100.00
58843;BME280;44614;54.356;10.100;2023-01-30T07:12:02;100041.53;;;3.39;100.00
58843;BME280;44614;54.356;10.100;2023-01-30T07:14:27;100042.88;;;3.50;100.00
58843;BME280;44614;54.356;10.100;2023-01-30T07:16:53;100027.41;;;3.44;100.00
58843;BME280;44614;54.356;10.100;2023-01-30T07:19:18;100046.69;;;3.56;100.00
58843;BME280;44614;54.356;10.100;2023-01-30T07:21:43;100045.22;;;3.53;100.00
58843;BME280;44614;54.356;10.100;2023-01-30T07:24:09;100044.16;;;3.54;100.00
58843;BME280;44614;54.356;10.100;2023-01-30T07:26:34;100042.28;;;3.55;100.00
58843;BME280;44614;54.356;10.100;2023-01-30T07:29:00;100051.78;;;3.65;100.00
58843;BME280;44614;54.356;10.100;2023-01-30T07:31:25;100043.84;;;3.64;100.00
58843;BME280;44614;54.356;10.100;2023-01-30T07:33:51;100041.75;;;3.66;100.00
58843;BME280;44614;54.356;10.100;2023-01-30T07:36:16;100043.25;;;3.69;100.00
58843;BME280;44614;54.356;10.100;2023-01-30T07:38:41;100056.81;;;3.69;100.00
58843;BME280;44614;54.356;10.100;2023-01-30T07:41:06;100032.59;;;3.74;100.00
58843;BME280;44614;54.356;10.100;2023-01-30T07:43:32;100033.91;;;3.78;100.00
58843;BME280;44614;54.356;10.100;2023-01-30T07:45:59;100037.91;;;3.82;100.00
58843;BME280;44614;54.356;10.100;2023-01-30T07:48:24;100017.19;;;3.81;100.00
58843;BME280;44614;54.356;10.100;2023-01-30T07:50:49;100035.66;;;3.92;100.00
58843;BME280;44614;54.356;10.100;2023-01-30T07:53:15;100038.63;;;3.97;100.00
58843;BME280;44614;54.356;10.100;2023-01-30T07:55:42;100043.25;;;4.03;100.00
58843;BME280;44614;54.356;10.100;2023-01-30T07:58:14;100057.09;;;4.08;100.00
58843;BME280;44614;54.356;10.100;2023-01-30T08:00:39;100049.13;;;4.07;100.00
58843;BME280;44614;54.356;10.100;2023-01-30T08:03:05;100041.19;;;4.05;100.00
58843;BME280;44614;54.356;10.100;2023-01-30T08:05:30;100033.81;;;3.99;100.00
58843;BME280;44614;54.356;10.100;2023-01-30T08:07:56;100022.72;;;3.94;100.00
58843;BME280;44614;54.356;10.100;2023-01-30T08:10:22;100031.09;;;3.99;100.00
58843;BME280;44614;54.356;10.100;2023-01-30T08:12:49;100030.28;;;3.99;100.00
58843;BME280;44614;54.356;10.100;2023-01-30T08:15:15;100043.81;;;3.92;100.00
58843;BME280;44614;54.356;10.100;2023-01-30T08:17:41;100032.09;;;3.91;100.00
58843;BME280;44614;54.356;10.100;2023-01-30T08:20:06;100031.03;;;3.86;100.00
58843;BME280;44614;54.356;10.100;2023-01-30T08:22:32;100025.78;;;3.84;100.00
58843;BME280;44614;54.356;10.100;2023-01-30T08:24:57;100051.50;;;3.82;100.00
58843;BME280;44614;54.356;10.100;2023-01-30T08:27:23;100059.00;;;3.80;100.00
58843;BME280;44614;54.356;10.100;2023-01-30T08:29:48;100049.88;;;3.38;100.00
58843;BME280;44614;54.356;10.100;2023-01-30T08:32:13;100071.16;;;3.34;100.00
58843;BME280;44614;54.356;10.100;2023-01-30T08:34:39;100062.16;;;3.12;100.00
58843;BME280;44614;54.356;10.100;2023-01-30T08:37:04;100082.78;;;3.07;100.00
58843;BME280;44614;54.356;10.100;2023-01-30T08:39:30;100045.56;;;2.79;100.00
58843;BME280;44614;54.356;10.100;2023-01-30T08:41:55;100059.31;;;2.78;100.00
58843;BME280;44614;54.356;10.100;2023-01-30T08:44:20;100065.09;;;2.75;100.00
58843;BME280;44614;54.356;10.100;2023-01-30T08:46:46;100080.19;;;2.62;100.00
58843;BME280;44614;54.356;10.100;2023-01-30T08:49:11;100060.50;;;2.54;100.00
58843;BME280;44614;54.356;10.100;2023-01-30T08:51:37;100086.75;;;2.53;100.00
58843;BME280;44614;54.356;10.100;2023-01-30T08:54:03;100082.75;;;2.49;100.00
58843;BME280;44614;54.356;10.100;2023-01-30T08:56:28;100042.13;;;2.34;100.00
58843;BME280;44614;54.356;10.100;2023-01-30T08:58:53;100046.31;;;2.37;100.00
58843;BME280;44614;54.356;10.100;2023-01-30T09:01:19;100058.47;;;2.41;100.00
58843;BME280;44614;54.356;10.100;2023-01-30T09:03:44;100054.06;;;2.40;100.00
58843;BME280;44614;54.356;10.100;2023-01-30T09:06:10;100049.66;;;2.39;100.00
58843;BME280;44614;54.356;10.100;2023-01-30T09:08:35;100038.00;;;2.38;100.00
58843;BME280;44614;54.356;10.100;2023-01-30T09:11:04;100042.38;;;2.39;100.00
58843;BME280;44614;54.356;10.100;2023-01-30T09:13:30;100028.38;;;2.36;100.00
58843;BME280;44614;54.356;10.100;2023-01-30T09:15:57;100033.69;;;2.44;100.00
58843;BME280;44614;54.356;10.100;2023-01-30T09:18:23;100038.44;;;2.57;100.00
58843;BME280;44614;54.356;10.100;2023-01-30T09:20:48;100037.47;;;2.64;100.00
58843;BME280;44614;54.356;10.100;2023-01-30T09:23:14;100037.59;;;2.78;100.00
58843;BME280;44614;54.356;10.100;2023-01-30T09:25:39;100030.84;;;2.88;100.00
58843;BME280;44614;54.356;10.100;2023-01-30T09:28:06;100013.22;;;2.99;100.00
58843;BME280;44614;54.356;10.100;2023-01-30T09:30:32;100022.97;;;3.15;100.00
58843;BME280;44614;54.356;10.100;2023-01-30T09:32:58;100022.22;;;3.28;100.00
58843;BME280;44614;54.356;10.100;2023-01-30T09:35:23;100029.84;;;3.39;100.00
58843;BME280;44614;54.356;10.100;2023-01-30T09:37:51;100018.22;;;3.45;100.00
58843;BME280;44614;54.356;10.100;2023-01-30T09:40:20;100022.44;;;3.54;100.00
58843;BME280;44614;54.356;10.100;2023-01-30T09:46:03;100009.16;;;3.66;100.00
58843;BME280;44614;54.356;10.100;2023-01-30T09:48:41;100002.94;;;3.72;100.00
58843;BME280;44614;54.356;10.100;2023-01-30T09:54:35;99957.22;;;3.76;100.00
58843;BME280;44614;54.356;10.100;2023-01-30T09:57:18;99995.44;;;4.15;100.00
58843;BME280;44614;54.356;10.100;2023-01-30T10:00:12;99979.41;;;4.21;100.00
58843;BME280;44614;54.356;10.100;2023-01-30T10:03:03;99982.13;;;4.21;100.00
58843;BME280;44614;54.356;10.100;2023-01-30T10:05:46;99978.34;;;4.22;100.00
58843;BME280;44614;54.356;10.100;2023-01-30T10:16:00;100007.63;;;3.85;100.00
58843;BME280;44614;54.356;10.100;2023-01-30T10:21:29;100021.50;;;3.69;100.00
58843;BME280;44614;54.356;10.100;2023-01-30T10:27:00;100006.25;;;3.39;100.00
58843;BME280;44614;54.356;10.100;2023-01-30T10:29:32;100009.47;;;3.22;100.00
58843;BME280;44614;54.356;10.100;2023-01-30T10:32:10;100040.16;;;3.22;100.00
58843;BME280;44614;54.356;10.100;2023-01-30T10:34:39;100005.47;;;3.17;100.00
58843;BME280;44614;54.356;10.100;2023-01-30T10:37:19;99993.78;;;3.17;100.00
58843;BME280;44614;54.356;10.100;2023-01-30T10:45:18;99977.59;;;3.30;100.00
58843;BME280;44614;54.356;10.100;2023-01-30T10:50:20;99988.34;;;3.45;100.00
58843;BME280;44614;54.356;10.100;2023-01-30T10:53:16;99996.34;;;3.53;100.00
58843;BME280;44614;54.356;10.100;2023-01-30T10:55:51;99995.97;;;3.56;100.00
58843;BME280;44614;54.356;10.100;2023-01-30T11:00:59;99982.00;;;3.59;100.00
58843;BME280;44614;54.356;10.100;2023-01-30T11:03:47;99993.13;;;3.71;100.00
58843;BME280;44614;54.356;10.100;2023-01-30T11:06:20;99988.16;;;3.75;100.00
58843;BME280;44614;54.356;10.100;2023-01-30T11:08:48;99991.47;;;3.77;100.00
58843;BME280;44614;54.356;10.100;2023-01-30T11:11:28;99986.72;;;3.79;100.00
58843;BME280;44614;54.356;10.100;2023-01-30T11:14:05;100000.72;;;3.82;100.00
58843;BME280;44614;54.356;10.100;2023-01-30T11:16:39;99995.47;;;3.81;100.00
58843;BME280;44614;54.356;10.100;2023-01-30T11:19:07;99989.69;;;3.90;100.00
58843;BME280;44614;54.356;10.100;2023-01-30T11:21:33;99992.84;;;3.94;100.00
58843;BME280;44614;54.356;10.100;2023-01-30T11:24:04;99975.91;;;3.92;100.00
58843;BME280;44614;54.356;10.100;2023-01-30T11:26:35;99984.75;;;4.01;100.00
58843;BME280;44614;54.356;10.100;2023-01-30T11:31:50;99991.88;;;4.08;100.00
58843;BME280;44614;54.356;10.100;2023-01-30T11:34:17;99987.72;;;4.19;100.00
58843;BME280;44614;54.356;10.100;2023-01-30T11:36:43;99985.06;;;4.26;100.00
58843;BME280;44614;54.356;10.100;2023-01-30T11:41:40;99971.97;;;4.49;100.00
58843;BME280;44614;54.356;10.100;2023-01-30T11:44:08;99964.47;;;4.58;100.00
58843;BME280;44614;54.356;10.100;2023-01-30T11:46:35;99952.97;;;4.62;100.00
58843;BME280;44614;54.356;10.100;2023-01-30T11:49:04;99954.63;;;4.63;100.00
58843;BME280;44614;54.356;10.100;2023-01-30T11:51:36;99951.91;;;4.50;100.00
58843;BME280;44614;54.356;10.100;2023-01-30T11:54:07;99965.66;;;4.42;100.00
58843;BME280;44614;54.356;10.100;2023-01-30T11:56:46;99969.19;;;4.29;100.00
58843;BME280;44614;54.356;10.100;2023-01-30T11:59:29;99968.97;;;4.24;100.00
58843;BME280;44614;54.356;10.100;2023-01-30T12:02:17;99964.53;;;4.17;100.00
58843;BME280;44614;54.356;10.100;2023-01-30T12:04:44;99982.81;;;4.36;100.00
58843;BME280;44614;54.356;10.100;2023-01-30T12:07:25;99992.44;;;4.45;100.00
58843;BME280;44614;54.356;10.100;2023-01-30T12:09:52;99991.22;;;4.54;100.00
58843;BME280;44614;54.356;10.100;2023-01-30T12:12:42;99991.03;;;4.62;100.00
58843;BME280;44614;54.356;10.100;2023-01-30T12:15:23;99987.25;;;4.50;100.00
58843;BME280;44614;54.356;10.100;2023-01-30T12:17:58;99988.75;;;4.66;100.00
58843;BME280;44614;54.356;10.100;2023-01-30T12:23:29;99979.97;;;4.71;100.00
58843;BME280;44614;54.356;10.100;2023-01-30T12:28:49;99997.75;;;4.67;100.00
58843;BME280;44614;54.356;10.100;2023-01-30T12:31:21;99999.41;;;4.68;100.00
58843;BME280;44614;54.356;10.100;2023-01-30T12:33:49;99988.75;;;4.73;100.00
58843;BME280;44614;54.356;10.100;2023-01-30T12:36:44;100006.31;;;4.77;100.00
58843;BME280;44614;54.356;10.100;2023-01-30T12:45:03;100004.03;;;4.80;100.00
58843;BME280;44614;54.356;10.100;2023-01-30T12:48:07;100015.78;;;4.94;100.00
58843;BME280;44614;54.356;10.100;2023-01-30T13:06:56;100028.16;;;5.03;96.52
58843;BME280;44614;54.356;10.100;2023-01-30T13:14:58;100017.25;;;5.03;95.05
58843;BME280;44614;54.356;10.100;2023-01-30T13:20:27;100032.38;;;5.32;96.62
58843;BME280;44614;54.356;10.100;2023-01-30T13:23:05;100027.34;;;5.69;94.10
58843;BME280;44614;54.356;10.100;2023-01-30T13:28:17;100047.22;;;6.09;94.35
58843;BME280;44614;54.356;10.100;2023-01-30T13:30:46;100040.13;;;5.95;92.41
58843;BME280;44614;54.356;10.100;2023-01-30T13:33:16;100061.28;;;5.80;94.36
58843;BME280;44614;54.356;10.100;2023-01-30T13:35:52;100061.09;;;5.61;96.36
58843;BME280;44614;54.356;10.100;2023-01-30T13:38:24;100056.91;;;5.46;97.00
58843;BME280;44614;54.356;10.100;2023-01-30T13:40:52;100051.25;;;5.27;98.38
58843;BME280;44614;54.356;10.100;2023-01-30T13:43:26;100090.59;;;5.31;99.21
58843;BME280;44614;54.356;10.100;2023-01-30T13:45:57;100080.75;;;5.24;100.00
58843;BME280;44614;54.356;10.100;2023-01-30T13:48:33;100092.69;;;5.23;100.00
58843;BME280;44614;54.356;10.100;2023-01-30T13:51:51;100106.94;;;5.25;100.00
58843;BME280;44614;54.356;10.100;2023-01-30T14:09:39;100088.09;;;5.23;97.89
58843;BME280;44614;54.356;10.100;2023-01-30T14:12:16;100125.78;;;5.33;97.08
58843;BME280;44614;54.356;10.100;2023-01-30T14:14:59;100116.34;;;5.29;95.62
58843;BME280;44614;54.356;10.100;2023-01-30T14:17:26;100139.22;;;5.34;94.42
58843;BME280;44614;54.356;10.100;2023-01-30T14:22:51;100168.94;;;5.36;96.71
58843;BME280;44614;54.356;10.100;2023-01-30T14:27:48;100192.59;;;5.35;95.52
58843;BME280;44614;54.356;10.100;2023-01-30T14:32:54;100202.03;;;5.40;93.51
58843;BME280;44614;54.356;10.100;2023-01-30T14:35:23;100184.81;;;5.19;93.43
58843;BME280;44614;54.356;10.100;2023-01-30T14:37:51;100208.72;;;5.30;94.45
58843;BME280;44614;54.356;10.100;2023-01-30T14:40:30;100228.84;;;5.36;93.19
58843;BME280;44614;54.356;10.100;2023-01-30T14:57:14;100302.94;;;5.25;89.91
58843;BME280;44614;54.356;10.100;2023-01-30T14:59:53;100298.44;;;5.10;86.78
58843;BME280;44614;54.356;10.100;2023-01-30T15:02:21;100322.00;;;5.25;89.88
58843;BME280;44614;54.356;10.100;2023-01-30T15:05:03;100325.75;;;5.24;88.84
58843;BME280;44614;54.356;10.100;2023-01-30T15:07:39;100328.88;;;5.21;86.07
58843;BME280;44614;54.356;10.100;2023-01-30T15:13:22;100337.22;;;5.12;88.44
58843;BME280;44614;54.356;10.100;2023-01-30T15:19:17;100350.31;;;5.02;84.35
58843;BME280;44614;54.356;10.100;2023-01-30T15:33:19;100401.34;;;4.94;89.37
58843;BME280;44614;54.356;10.100;2023-01-30T15:35:45;100398.38;;;4.88;91.46